createdAt,value
2018-08-11T00:02:26.488Z,1.27
2018-08-11T00:04:54.575Z,1.20
2018-08-11T00:07:22.680Z,1.43
2018-08-11T00:09:50.785Z,1.17
2018-08-11T00:12:18.883Z,1.00
2018-08-11T00:14:46.980Z,1.47
2018-08-11T00:17:15.112Z,1.30
2018-08-11T00:19:43.231Z,1.63
2018-08-11T00:22:11.332Z,1.83
2018-08-11T00:24:39.423Z,1.53
2018-08-11T00:27:07.543Z,1.30
2018-08-11T00:29:35.697Z,1.30
2018-08-11T00:32:03.798Z,1.27
2018-08-11T00:34:31.915Z,1.20
2018-08-11T00:37:00.048Z,1.30
2018-08-11T00:39:28.188Z,1.60
2018-08-11T00:41:56.291Z,1.73
2018-08-11T00:44:24.395Z,1.20
2018-08-11T00:46:52.483Z,1.30
2018-08-11T00:49:20.608Z,1.10
2018-08-11T00:51:48.709Z,1.60
2018-08-11T00:54:16.835Z,1.30
2018-08-11T00:56:44.927Z,1.10
2018-08-11T00:59:13.040Z,1.30
2018-08-11T01:01:41.131Z,1.47
2018-08-11T01:04:09.251Z,1.50
2018-08-11T01:06:37.375Z,1.40
2018-08-11T01:09:07.996Z,1.10
2018-08-11T01:11:36.092Z,1.17
2018-08-11T01:14:04.191Z,1.20
2018-08-11T01:16:32.287Z,1.03
2018-08-11T01:19:00.395Z,1.50
2018-08-11T01:21:28.499Z,1.20
2018-08-11T01:23:56.589Z,1.27
2018-08-11T01:26:24.676Z,1.43
2018-08-11T01:28:52.771Z,1.30
2018-08-11T01:31:27.581Z,1.03
2018-08-11T01:33:59.548Z,1.23
2018-08-11T01:36:27.628Z,1.40
2018-08-11T01:38:55.755Z,1.43
2018-08-11T01:41:23.860Z,1.30
2018-08-11T01:43:51.959Z,1.27
2018-08-11T01:46:20.080Z,1.20
2018-08-11T01:48:48.191Z,1.10
2018-08-11T01:51:16.299Z,1.20
2018-08-11T01:53:44.412Z,1.10
2018-08-11T01:56:12.516Z,1.13
2018-08-11T01:58:40.613Z,1.23
2018-08-11T02:01:08.725Z,1.40
2018-08-11T02:03:36.824Z,1.13
2018-08-11T02:06:04.955Z,1.20
2018-08-11T02:08:33.040Z,1.30
2018-08-11T02:11:01.131Z,1.17
2018-08-11T02:13:29.243Z,1.40
2018-08-11T02:15:57.387Z,0.90
2018-08-11T02:18:25.479Z,1.00
2018-08-11T02:20:53.571Z,1.10
2018-08-11T02:23:21.654Z,1.17
2018-08-11T02:25:49.756Z,1.23
2018-08-11T02:28:17.845Z,1.00
2018-08-11T02:30:45.947Z,1.00
2018-08-11T02:33:14.044Z,1.07
2018-08-11T02:35:42.157Z,1.10
2018-08-11T02:38:10.236Z,0.90
2018-08-11T02:40:38.333Z,1.03
2018-08-11T02:43:06.416Z,1.10
2018-08-11T02:45:34.512Z,1.30
2018-08-11T02:48:02.607Z,1.30
2018-08-11T02:50:30.720Z,1.23
2018-08-11T02:52:58.840Z,1.20
2018-08-11T02:55:26.932Z,1.20
2018-08-11T02:57:55.024Z,0.80
2018-08-11T03:00:23.182Z,0.90
2018-08-11T03:02:51.328Z,1.00
2018-08-11T03:07:53.795Z,0.90
2018-08-11T03:10:21.898Z,0.93
2018-08-11T03:12:50.005Z,1.03
2018-08-11T03:15:18.105Z,0.97
2018-08-11T03:17:46.221Z,1.00
2018-08-11T03:20:15.241Z,0.93
2018-08-11T03:22:44.004Z,1.00
2018-08-11T03:25:12.092Z,1.23
2018-08-11T03:27:40.248Z,1.47
2018-08-11T03:30:08.659Z,1.40
2018-08-11T03:32:36.846Z,1.20
2018-08-11T03:35:05.443Z,0.90
2018-08-11T03:37:33.784Z,1.20
2018-08-11T03:40:01.901Z,1.30
2018-08-11T03:42:29.993Z,1.20
2018-08-11T03:44:58.090Z,1.20
2018-08-11T03:47:26.185Z,1.33
2018-08-11T03:49:54.293Z,0.93
2018-08-11T03:52:22.403Z,1.27
2018-08-11T03:54:50.480Z,1.10
2018-08-11T03:57:18.561Z,1.10
2018-08-11T03:59:46.657Z,0.90
2018-08-11T04:02:14.748Z,1.03
2018-08-11T04:04:42.861Z,1.00
2018-08-11T04:07:10.949Z,0.90
2018-08-11T04:09:39.064Z,0.90
2018-08-11T04:12:07.279Z,0.90
2018-08-11T04:14:35.364Z,1.03
2018-08-11T04:17:03.460Z,0.90
2018-08-11T04:19:31.581Z,0.93
2018-08-11T04:21:59.689Z,0.83
2018-08-11T04:24:27.769Z,1.10
2018-08-11T04:26:55.887Z,0.80
2018-08-11T04:29:23.983Z,1.20
2018-08-11T04:31:52.088Z,0.97
2018-08-11T04:34:20.188Z,1.03
2018-08-11T04:36:48.297Z,1.13
2018-08-11T04:39:16.388Z,1.00
2018-08-11T04:41:44.488Z,0.83
2018-08-11T04:44:12.594Z,0.90
2018-08-11T04:46:40.694Z,0.97
2018-08-11T04:49:08.801Z,1.10
2018-08-11T04:51:36.907Z,0.90
2018-08-11T04:54:05.011Z,0.90
2018-08-11T04:56:33.099Z,1.43
2018-08-11T04:59:01.187Z,1.00
2018-08-11T05:01:29.291Z,0.90
2018-08-11T05:03:57.434Z,1.30
2018-08-11T05:06:25.502Z,1.00
2018-08-11T05:08:53.595Z,1.00
2018-08-11T05:11:21.671Z,1.07
2018-08-11T05:13:49.775Z,1.00
2018-08-11T05:16:17.895Z,1.10
2018-08-11T05:18:46.031Z,0.93
2018-08-11T05:21:14.140Z,0.90
2018-08-11T05:23:42.229Z,1.07
2018-08-11T05:26:10.326Z,0.80
2018-08-11T05:28:38.441Z,0.80
2018-08-11T05:31:06.580Z,1.00
2018-08-11T05:33:34.657Z,1.00
2018-08-11T05:36:02.758Z,0.90
2018-08-11T05:38:30.853Z,0.90
2018-08-11T05:40:58.952Z,0.87
2018-08-11T05:43:27.064Z,0.83
2018-08-11T05:45:55.995Z,1.10
2018-08-11T05:48:24.135Z,1.00
2018-08-11T05:50:52.235Z,0.93
2018-08-11T05:53:20.363Z,0.90
2018-08-11T05:55:48.469Z,0.70
2018-08-11T05:58:16.595Z,0.93
2018-08-11T06:00:44.707Z,1.00
2018-08-11T06:03:12.791Z,1.00
2018-08-11T06:05:40.936Z,1.00
2018-08-11T06:08:09.023Z,1.00
2018-08-11T06:10:37.208Z,0.90
2018-08-11T06:13:05.234Z,1.03
2018-08-11T06:15:33.363Z,0.90
2018-08-11T06:18:01.479Z,1.00
2018-08-11T06:20:29.562Z,1.00
2018-08-11T06:22:57.664Z,1.20
2018-08-11T06:25:25.752Z,0.90
2018-08-11T06:27:53.876Z,1.30
2018-08-11T06:30:21.983Z,0.90
2018-08-11T06:32:50.088Z,1.00
2018-08-11T06:35:18.174Z,1.00
2018-08-11T06:37:46.275Z,0.80
2018-08-11T06:40:14.363Z,1.00
2018-08-11T06:42:42.448Z,1.13
2018-08-11T06:45:10.624Z,0.80
2018-08-11T06:47:38.736Z,0.80
2018-08-11T06:50:06.833Z,1.07
2018-08-11T06:52:34.979Z,1.10
2018-08-11T06:55:03.084Z,0.90
2018-08-11T06:57:31.511Z,1.10
2018-08-11T06:59:59.611Z,0.90
2018-08-11T07:02:27.700Z,0.80
2018-08-11T07:04:55.805Z,0.90
2018-08-11T07:07:23.921Z,0.87
2018-08-11T07:09:52.022Z,0.80
2018-08-11T07:12:20.127Z,1.00
2018-08-11T07:14:48.251Z,0.90
2018-08-11T07:17:16.389Z,0.90
2018-08-11T07:19:44.456Z,0.90
2018-08-11T07:22:12.603Z,1.03
2018-08-11T07:24:40.688Z,0.93
2018-08-11T07:27:08.931Z,1.10
2018-08-11T07:29:37.030Z,0.90
2018-08-11T07:32:05.128Z,1.10
2018-08-11T07:34:33.287Z,0.90
2018-08-11T07:37:01.399Z,1.03
2018-08-11T07:39:29.497Z,1.00
2018-08-11T07:41:57.614Z,0.90
2018-08-11T07:44:25.703Z,1.27
2018-08-11T07:46:53.808Z,1.00
2018-08-11T07:49:21.916Z,0.90
2018-08-11T07:51:50.016Z,1.07
2018-08-11T07:54:18.113Z,1.10
2018-08-11T07:56:46.198Z,0.97
2018-08-11T07:59:14.297Z,1.00
2018-08-11T08:01:42.376Z,1.00
2018-08-11T08:04:10.479Z,1.13
2018-08-11T08:06:38.583Z,1.30
2018-08-11T08:09:08.472Z,1.00
2018-08-11T08:11:36.549Z,1.33
2018-08-11T08:14:04.648Z,0.90
2018-08-11T08:16:32.744Z,1.20
2018-08-11T08:19:00.947Z,0.90
2018-08-11T08:21:29.042Z,0.90
2018-08-11T08:23:57.165Z,1.00
2018-08-11T08:26:25.356Z,1.10
2018-08-11T08:28:53.377Z,1.10
2018-08-11T08:31:21.519Z,1.00
2018-08-11T08:33:49.684Z,1.10
2018-08-11T08:36:17.755Z,1.13
2018-08-11T08:38:45.978Z,1.00
2018-08-11T08:41:14.106Z,0.87
2018-08-11T08:43:42.214Z,0.87
2018-08-11T08:46:10.349Z,1.00
2018-08-11T08:48:38.461Z,1.10
2018-08-11T08:51:06.584Z,0.80
2018-08-11T08:53:34.695Z,1.20
2018-08-11T08:56:02.930Z,1.10
2018-08-11T08:58:31.019Z,0.93
2018-08-11T09:00:59.155Z,1.20
2018-08-11T09:03:27.267Z,1.10
2018-08-11T09:05:55.395Z,1.10
2018-08-11T09:08:23.497Z,1.10
2018-08-11T09:10:51.659Z,1.07
2018-08-11T09:13:19.786Z,1.10
2018-08-11T09:15:47.884Z,1.10
2018-08-11T09:18:15.987Z,1.40
2018-08-11T09:20:44.159Z,1.47
2018-08-11T09:23:12.260Z,1.50
2018-08-11T09:25:40.378Z,1.63
2018-08-11T09:28:08.504Z,1.73
2018-08-11T09:30:36.604Z,1.33
2018-08-11T09:33:04.727Z,1.47
2018-08-11T09:35:32.816Z,2.23
2018-08-11T09:38:00.922Z,2.33
2018-08-11T09:40:29.028Z,2.47
2018-08-11T09:42:57.118Z,2.80
2018-08-11T09:45:25.198Z,3.67
2018-08-11T09:47:53.288Z,3.80
2018-08-11T09:50:21.419Z,3.97
2018-08-11T09:52:49.516Z,2.50
2018-08-11T09:55:17.684Z,2.27
2018-08-11T09:57:45.797Z,2.10
2018-08-11T10:00:13.927Z,1.60
2018-08-11T10:02:42.015Z,1.30
2018-08-11T10:05:10.173Z,1.30
2018-08-11T10:07:38.252Z,1.30
2018-08-11T10:10:06.363Z,1.40
2018-08-11T10:12:34.454Z,1.23
2018-08-11T10:15:02.552Z,1.40
2018-08-11T10:17:30.645Z,1.33
2018-08-11T10:19:58.753Z,1.40
2018-08-11T10:22:26.871Z,1.50
2018-08-11T10:24:55.142Z,1.17
2018-08-11T10:27:23.227Z,1.17
2018-08-11T10:29:51.333Z,1.30
2018-08-11T10:32:19.427Z,0.90
2018-08-11T10:34:47.511Z,1.30
2018-08-11T10:37:20.932Z,0.90
2018-08-11T10:39:49.097Z,0.90
2018-08-11T10:42:17.170Z,1.10
2018-08-11T10:44:45.263Z,0.90
2018-08-11T10:47:13.384Z,1.10
2018-08-11T10:49:41.456Z,0.87
2018-08-11T10:52:09.568Z,1.20
2018-08-11T10:54:37.659Z,0.80
2018-08-11T10:57:05.908Z,0.90
2018-08-11T10:59:34.020Z,0.90
2018-08-11T11:02:02.157Z,1.13
2018-08-11T11:04:30.291Z,1.10
2018-08-11T11:06:58.407Z,1.20
2018-08-11T11:09:26.500Z,1.30
2018-08-11T11:11:54.598Z,1.10
2018-08-11T11:14:22.945Z,1.33
2018-08-11T11:16:51.003Z,1.50
2018-08-11T11:19:19.122Z,1.33
2018-08-11T11:21:47.212Z,1.80
2018-08-11T11:24:15.323Z,1.33
2018-08-11T11:26:43.410Z,1.40
2018-08-11T11:29:11.515Z,1.20
2018-08-11T11:31:39.673Z,1.60
2018-08-11T11:34:07.791Z,1.23
2018-08-11T11:36:35.911Z,2.00
2018-08-11T11:39:06.056Z,1.47
2018-08-11T11:41:34.223Z,1.40
2018-08-11T11:44:02.348Z,2.30
2018-08-11T11:46:30.458Z,1.70
2018-08-11T11:48:58.547Z,1.70
2018-08-11T11:51:26.640Z,1.37
2018-08-11T11:53:54.755Z,1.40
2018-08-11T11:56:22.863Z,1.30
2018-08-11T11:58:50.953Z,1.10
2018-08-11T12:01:19.129Z,1.80
2018-08-11T12:03:47.224Z,1.60
2018-08-11T12:06:15.315Z,1.13
2018-08-11T12:08:43.410Z,1.80
2018-08-11T12:11:11.550Z,1.60
2018-08-11T12:13:39.640Z,1.60
2018-08-11T12:16:07.779Z,1.20
2018-08-11T12:18:35.868Z,1.20
2018-08-11T12:21:04.014Z,1.20
2018-08-11T12:23:32.139Z,1.33
2018-08-11T12:26:00.448Z,1.40
2018-08-11T12:28:28.539Z,1.50
2018-08-11T12:30:56.628Z,1.50
2018-08-11T12:33:24.793Z,1.10
2018-08-11T12:35:52.900Z,1.30
2018-08-11T12:38:20.992Z,1.20
2018-08-11T12:40:49.159Z,1.30
2018-08-11T12:43:17.255Z,1.37
2018-08-11T12:45:45.395Z,1.50
2018-08-11T12:48:13.476Z,1.40
2018-08-11T12:50:41.592Z,2.00
2018-08-11T12:53:09.925Z,1.30
2018-08-11T12:55:38.048Z,1.60
2018-08-11T12:58:06.268Z,1.87
2018-08-11T13:00:34.383Z,1.40
2018-08-11T13:03:02.519Z,1.30
2018-08-11T13:05:30.608Z,1.40
2018-08-11T13:07:58.723Z,1.80
2018-08-11T13:10:26.816Z,1.50
2018-08-11T13:12:54.974Z,1.10
2018-08-11T13:15:23.060Z,1.43
2018-08-11T13:17:51.159Z,1.57
2018-08-11T13:20:19.248Z,1.57
2018-08-11T13:22:47.391Z,1.30
2018-08-11T13:25:15.508Z,1.57
2018-08-11T13:27:43.633Z,1.10
2018-08-11T13:30:11.715Z,1.40
2018-08-11T13:32:39.811Z,1.23
2018-08-11T13:35:07.907Z,1.20
2018-08-11T13:37:36.017Z,1.30
2018-08-11T13:40:04.379Z,1.50
2018-08-11T13:42:32.483Z,1.63
2018-08-11T13:45:00.596Z,1.40
2018-08-11T13:47:28.711Z,1.60
2018-08-11T13:49:56.844Z,1.67
2018-08-11T13:52:24.948Z,1.37
2018-08-11T13:54:53.053Z,1.30
2018-08-11T13:57:21.171Z,1.20
2018-08-11T13:59:49.293Z,1.27
2018-08-11T14:02:17.381Z,1.30
2018-08-11T14:04:45.463Z,1.53
2018-08-11T14:07:13.572Z,1.70
2018-08-11T14:09:41.650Z,1.77
2018-08-11T14:12:09.771Z,1.40
2018-08-11T14:14:37.862Z,1.30
2018-08-11T14:17:06.012Z,1.37
2018-08-11T14:19:34.089Z,1.63
2018-08-11T14:22:02.208Z,1.40
2018-08-11T14:24:30.342Z,1.60
2018-08-11T14:26:58.456Z,1.47
2018-08-11T14:29:26.572Z,1.70
2018-08-11T14:31:54.680Z,2.17
2018-08-11T14:34:22.801Z,2.00
2018-08-11T14:36:50.896Z,2.97
2018-08-11T14:39:19.035Z,1.70
2018-08-11T14:41:47.156Z,1.50
2018-08-11T14:44:15.276Z,0.83
2018-08-11T14:46:43.404Z,0.70
2018-08-11T14:49:11.522Z,0.77
2018-08-11T14:51:39.631Z,0.70
2018-08-11T14:54:07.765Z,1.30
2018-08-11T14:56:35.856Z,0.90
2018-08-11T14:59:03.957Z,0.90
2018-08-11T15:01:32.055Z,1.30
2018-08-11T15:04:00.155Z,1.27
2018-08-11T15:06:28.275Z,1.23
2018-08-11T15:08:56.388Z,1.13
2018-08-11T15:11:24.507Z,1.23
2018-08-11T15:13:52.603Z,1.87
2018-08-11T15:16:20.794Z,1.50
2018-08-11T15:18:48.836Z,1.30
2018-08-11T15:21:16.941Z,1.20
2018-08-11T15:23:45.054Z,1.40
2018-08-11T15:26:13.131Z,1.57
2018-08-11T15:28:41.244Z,1.27
2018-08-11T15:31:09.367Z,1.10
2018-08-11T15:33:37.501Z,1.10
2018-08-11T15:36:05.616Z,2.20
2018-08-11T15:38:33.696Z,1.50
2018-08-11T15:41:01.806Z,1.07
2018-08-11T15:43:29.912Z,1.17
2018-08-11T15:45:58.039Z,1.10
2018-08-11T15:48:26.179Z,1.00
2018-08-11T15:50:54.416Z,1.20
2018-08-11T15:53:22.500Z,1.00
2018-08-11T15:55:50.735Z,1.10
2018-08-11T15:58:18.831Z,1.30
2018-08-11T16:00:46.927Z,1.17
2018-08-11T16:03:15.069Z,1.40
2018-08-11T16:05:43.145Z,1.10
2018-08-11T16:08:11.259Z,1.00
2018-08-11T16:10:39.335Z,1.00
2018-08-11T16:13:07.531Z,0.90
2018-08-11T16:15:35.799Z,1.00
2018-08-11T16:18:03.941Z,0.90
2018-08-11T16:20:32.024Z,1.00
2018-08-11T16:23:00.192Z,1.20
2018-08-11T16:25:28.315Z,1.10
2018-08-11T16:27:56.483Z,1.00
2018-08-11T16:30:24.624Z,1.30
2018-08-11T16:32:52.727Z,1.00
2018-08-11T16:35:22.463Z,1.03
2018-08-11T16:37:51.204Z,0.97
2018-08-11T16:40:19.305Z,0.90
2018-08-11T16:42:47.391Z,1.03
2018-08-11T16:45:15.533Z,1.27
2018-08-11T16:47:43.654Z,0.80
2018-08-11T16:50:11.880Z,1.10
2018-08-11T16:52:39.980Z,1.20
2018-08-11T16:55:08.089Z,1.00
2018-08-11T16:57:36.177Z,1.00
2018-08-11T17:00:06.802Z,1.00
2018-08-11T17:02:34.976Z,1.03
2018-08-11T17:05:03.106Z,0.90
2018-08-11T17:07:31.192Z,0.90
2018-08-11T17:09:59.292Z,0.90
2018-08-11T17:12:27.404Z,1.10
2018-08-11T17:14:55.507Z,0.90
2018-08-11T17:17:23.637Z,1.10
2018-08-11T17:19:51.752Z,1.10
2018-08-11T17:22:19.830Z,1.00
2018-08-11T17:24:47.928Z,1.07
2018-08-11T17:27:16.064Z,0.90
2018-08-11T17:29:44.196Z,0.80
2018-08-11T17:32:12.280Z,0.90
2018-08-11T17:34:40.375Z,1.23
2018-08-11T17:37:08.448Z,0.83
2018-08-11T17:39:36.560Z,1.00
2018-08-11T17:42:04.707Z,0.80
2018-08-11T17:44:32.825Z,1.00
2018-08-11T17:47:00.944Z,0.93
2018-08-11T17:49:29.045Z,1.10
2018-08-11T17:51:57.171Z,1.00
2018-08-11T17:54:25.228Z,0.77
2018-08-11T17:56:53.372Z,0.93
2018-08-11T17:59:21.458Z,1.13
2018-08-11T18:01:49.620Z,1.33
2018-08-11T18:04:17.712Z,1.20
2018-08-11T18:06:45.837Z,1.10
2018-08-11T18:09:14.048Z,0.90
2018-08-11T18:11:42.159Z,1.10
2018-08-11T18:14:10.499Z,1.00
2018-08-11T18:16:38.601Z,0.90
2018-08-11T18:19:06.823Z,1.10
2018-08-11T18:21:34.906Z,1.20
2018-08-11T18:24:02.993Z,1.17
2018-08-11T18:26:31.126Z,1.23
2018-08-11T18:28:59.220Z,1.33
2018-08-11T18:31:27.421Z,1.40
2018-08-11T18:33:55.416Z,1.30
2018-08-11T18:36:23.596Z,2.07
2018-08-11T18:38:51.738Z,1.47
2018-08-11T18:43:54.267Z,1.70
2018-08-11T18:46:22.359Z,1.70
2018-08-11T18:48:50.459Z,1.50
2018-08-11T18:51:18.579Z,1.73
2018-08-11T18:53:46.647Z,1.20
2018-08-11T18:56:14.740Z,1.37
2018-08-11T18:58:42.827Z,1.77
2018-08-11T19:01:10.984Z,1.90
2018-08-11T19:03:39.068Z,1.70
2018-08-11T19:06:07.168Z,1.80
2018-08-11T19:08:35.267Z,2.67
2018-08-11T19:11:03.399Z,3.87
2018-08-11T19:13:31.495Z,2.67
2018-08-11T19:15:59.600Z,2.20
2018-08-11T19:18:27.742Z,2.70
2018-08-11T19:20:55.836Z,3.17
2018-08-11T19:23:23.928Z,3.30
2018-08-11T19:25:52.087Z,3.40
2018-08-11T19:28:20.167Z,3.30
2018-08-11T19:30:48.277Z,3.60
2018-08-11T19:33:16.409Z,3.13
2018-08-11T19:35:44.511Z,3.47
2018-08-11T19:38:12.627Z,2.17
2018-08-11T19:40:40.708Z,2.10
2018-08-11T19:43:09.148Z,2.07
2018-08-11T19:45:37.267Z,1.50
2018-08-11T19:48:05.367Z,3.23
2018-08-11T19:50:33.448Z,2.90
2018-08-11T19:53:01.566Z,6.50
2018-08-11T19:55:29.679Z,7.50
2018-08-11T19:57:57.779Z,11.80
2018-08-11T20:00:25.879Z,15.80
2018-08-11T20:02:53.991Z,11.83
2018-08-11T20:05:22.088Z,14.60
2018-08-11T20:07:50.171Z,15.17
2018-08-11T20:10:18.344Z,13.73
2018-08-11T20:12:46.544Z,13.10
2018-08-11T20:15:14.554Z,13.83
2018-08-11T20:17:42.655Z,12.43
2018-08-11T20:20:11.195Z,12.97
2018-08-11T20:22:39.323Z,12.47
2018-08-11T20:25:07.529Z,13.83
2018-08-11T20:27:35.613Z,12.53
2018-08-11T20:30:04.671Z,13.00
2018-08-11T20:32:32.819Z,12.23
2018-08-11T20:35:00.899Z,11.57
2018-08-11T20:37:28.986Z,11.57
2018-08-11T20:39:57.101Z,12.00
2018-08-11T20:42:25.238Z,12.50
2018-08-11T20:44:53.309Z,11.80
2018-08-11T20:47:21.499Z,11.90
2018-08-11T20:49:49.552Z,11.30
2018-08-11T20:52:18.068Z,11.40
2018-08-11T20:54:46.160Z,12.73
2018-08-11T20:57:14.640Z,11.20
2018-08-11T20:59:42.734Z,11.63
2018-08-11T21:02:11.075Z,11.57
2018-08-11T21:04:39.187Z,11.90
2018-08-11T21:07:07.663Z,11.33
2018-08-11T21:09:35.783Z,11.67
2018-08-11T21:12:03.931Z,10.17
2018-08-11T21:14:32.447Z,10.93
2018-08-11T21:17:00.574Z,11.07
2018-08-11T21:19:28.680Z,11.10
2018-08-11T21:21:56.792Z,9.80
2018-08-11T21:24:24.902Z,10.73
2018-08-11T21:26:54.780Z,9.90
2018-08-11T21:29:23.440Z,10.40
2018-08-11T21:31:51.564Z,10.10
2018-08-11T21:34:19.679Z,10.90
2018-08-11T21:36:47.772Z,10.03
2018-08-11T21:39:15.855Z,9.93
2018-08-11T21:41:43.991Z,9.67
2018-08-11T21:44:12.123Z,8.83
2018-08-11T21:46:40.313Z,8.83
2018-08-11T21:49:09.340Z,9.50
2018-08-11T21:51:38.065Z,10.00
2018-08-11T21:54:06.561Z,10.03
2018-08-11T21:56:34.662Z,8.30
2018-08-11T21:59:03.048Z,9.70
2018-08-11T22:01:31.655Z,9.80
2018-08-11T22:03:59.768Z,9.60
2018-08-11T22:06:28.105Z,9.50
2018-08-11T22:08:56.208Z,10.03
2018-08-11T22:11:25.057Z,8.97
2018-08-11T22:13:53.146Z,9.83
2018-08-11T22:16:21.604Z,8.90
2018-08-11T22:18:49.726Z,9.27
2018-08-11T22:21:18.129Z,9.60
2018-08-11T22:23:46.243Z,7.97
2018-08-11T22:26:14.324Z,9.17
2018-08-11T22:28:42.439Z,9.40
2018-08-11T22:31:10.819Z,9.20
2018-08-11T22:33:38.927Z,9.10
2018-08-11T22:36:07.173Z,8.77
2018-08-11T22:38:35.286Z,8.47
2018-08-11T22:41:03.390Z,8.03
2018-08-11T22:43:31.475Z,9.03
2018-08-11T22:45:59.727Z,9.33
2018-08-11T22:48:27.992Z,8.80
2018-08-11T22:50:56.100Z,8.63
2018-08-11T22:53:24.202Z,7.97
2018-08-11T22:55:52.302Z,9.03
2018-08-11T22:58:20.432Z,9.60
2018-08-11T23:00:48.522Z,8.50
2018-08-11T23:03:16.640Z,9.00
2018-08-11T23:05:44.733Z,7.67
2018-08-11T23:08:12.828Z,7.50
2018-08-11T23:10:40.911Z,7.83
2018-08-11T23:13:09.004Z,8.83
2018-08-11T23:15:37.089Z,7.77
2018-08-11T23:18:05.253Z,7.80
2018-08-11T23:20:33.343Z,7.60
2018-08-11T23:23:01.474Z,8.50
2018-08-11T23:25:29.719Z,8.70
2018-08-11T23:27:57.818Z,8.20
2018-08-11T23:30:25.918Z,7.83
2018-08-11T23:32:54.023Z,7.73
2018-08-11T23:35:22.165Z,8.03
2018-08-11T23:37:50.301Z,8.03
2018-08-11T23:40:18.383Z,8.07
2018-08-11T23:42:46.480Z,8.13
2018-08-11T23:45:15.721Z,8.40
2018-08-11T23:47:43.899Z,7.60
2018-08-11T23:50:12.756Z,7.87
2018-08-11T23:52:41.799Z,7.90
2018-08-11T23:55:10.783Z,8.43
2018-08-11T23:57:38.866Z,7.97
